sensor_id;sensor_type;location;lat;lon;timestamp;P1;durP1;ratioP1;P2;durP2;ratioP2
57615;SDS011;43816;52.054;-9.494;2023-04-25T00:00:07;3.63;;;3.33;;
57615;SDS011;43816;52.054;-9.494;2023-04-25T00:00:17;3.55;;;3.25;;
57615;SDS011;43816;52.054;-9.494;2023-04-25T00:00:28;3.57;;;3.27;;
57615;SDS011;43816;52.054;-9.494;2023-04-25T00:00:39;3.85;;;3.47;;
57615;SDS011;43816;52.054;-9.494;2023-04-25T00:00:49;3.90;;;3.53;;
57615;SDS011;43816;52.054;-9.494;2023-04-25T00:00:59;4.07;;;3.67;;
57615;SDS011;43816;52.054;-9.494;2023-04-25T00:01:09;3.80;;;3.50;;
57615;SDS011;43816;52.054;-9.494;2023-04-25T00:01:20;3.67;;;3.37;;
57615;SDS011;43816;52.054;-9.494;2023-04-25T00:01:31;3.50;;;3.20;;
57615;SDS011;43816;52.054;-9.494;2023-04-25T00:01:41;3.58;;;3.28;;
57615;SDS011;43816;52.054;-9.494;2023-04-25T00:01:51;3.67;;;3.37;;
57615;SDS011;43816;52.054;-9.494;2023-04-25T00:02:02;3.70;;;3.40;;
57615;SDS011;43816;52.054;-9.494;2023-04-25T00:02:12;3.60;;;3.30;;
57615;SDS011;43816;52.054;-9.494;2023-04-25T00:02:23;3.67;;;3.37;;
57615;SDS011;43816;52.054;-9.494;2023-04-25T00:02:33;3.70;;;3.40;;
57615;SDS011;43816;52.054;-9.494;2023-04-25T00:02:43;3.70;;;3.40;;
57615;SDS011;43816;52.054;-9.494;2023-04-25T00:02:53;3.80;;;3.30;;
57615;SDS011;43816;52.054;-9.494;2023-04-25T00:03:04;3.70;;;3.30;;
57615;SDS011;43816;52.054;-9.494;2023-04-25T00:03:14;3.77;;;3.37;;
57615;SDS011;43816;52.054;-9.494;2023-04-25T00:03:24;3.77;;;3.47;;
57615;SDS011;43816;52.054;-9.494;2023-04-25T00:03:35;3.63;;;3.33;;
57615;SDS011;43816;52.054;-9.494;2023-04-25T00:03:45;3.70;;;3.40;;
57615;SDS011;43816;52.054;-9.494;2023-04-25T00:03:55;3.50;;;3.20;;
57615;SDS011;43816;52.054;-9.494;2023-04-25T00:04:06;3.42;;;3.13;;
57615;SDS011;43816;52.054;-9.494;2023-04-25T00:04:17;3.30;;;3.00;;
57615;SDS011;43816;52.054;-9.494;2023-04-25T00:04:27;3.47;;;3.17;;
57615;SDS011;43816;52.054;-9.494;2023-04-25T00:04:37;3.40;;;3.10;;
57615;SDS011;43816;52.054;-9.494;2023-04-25T00:04:48;3.53;;;3.17;;
57615;SDS011;43816;52.054;-9.494;2023-04-25T00:04:58;3.60;;;3.30;;
57615;SDS011;43816;52.054;-9.494;2023-04-25T00:05:08;3.90;;;3.50;;
57615;SDS011;43816;52.054;-9.494;2023-04-25T00:05:19;3.77;;;3.47;;
57615;SDS011;43816;52.054;-9.494;2023-04-25T00:05:29;3.70;;;3.40;;
57615;SDS011;43816;52.054;-9.494;2023-04-25T00:05:39;3.70;;;3.40;;
57615;SDS011;43816;52.054;-9.494;2023-04-25T00:05:50;3.90;;;3.50;;
57615;SDS011;43816;52.054;-9.494;2023-04-25T00:06:01;3.72;;;3.30;;
57615;SDS011;43816;52.054;-9.494;2023-04-25T00:06:11;3.53;;;3.23;;
57615;SDS011;43816;52.054;-9.494;2023-04-25T00:06:22;3.50;;;3.20;;
57615;SDS011;43816;52.054;-9.494;2023-04-25T00:06:32;3.43;;;3.13;;
57615;SDS011;43816;52.054;-9.494;2023-04-25T00:06:44;3.50;;;3.20;;
57615;SDS011;43816;52.054;-9.494;2023-04-25T00:06:54;3.80;;;3.42;;
57615;SDS011;43816;52.054;-9.494;2023-04-25T00:07:05;3.85;;;3.50;;
57615;SDS011;43816;52.054;-9.494;2023-04-25T00:07:15;3.70;;;3.40;;
57615;SDS011;43816;52.054;-9.494;2023-04-25T00:07:26;3.43;;;3.13;;
57615;SDS011;43816;52.054;-9.494;2023-04-25T00:07:36;3.35;;;3.05;;
57615;SDS011;43816;52.054;-9.494;2023-04-25T00:07:46;3.50;;;3.20;;
57615;SDS011;43816;52.054;-9.494;2023-04-25T00:07:57;3.50;;;3.20;;
57615;SDS011;43816;52.054;-9.494;2023-04-25T00:08:07;3.50;;;3.20;;
57615;SDS011;43816;52.054;-9.494;2023-04-25T00:08:18;3.40;;;3.10;;
57615;SDS011;43816;52.054;-9.494;2023-04-25T00:08:28;3.50;;;3.20;;
57615;SDS011;43816;52.054;-9.494;2023-04-25T00:08:39;3.78;;;3.22;;
57615;SDS011;43816;52.054;-9.494;2023-04-25T00:08:50;3.83;;;3.30;;
57615;SDS011;43816;52.054;-9.494;2023-04-25T00:09:00;3.70;;;3.33;;
57615;SDS011;43816;52.054;-9.494;2023-04-25T00:09:11;3.70;;;3.40;;
57615;SDS011;43816;52.054;-9.494;2023-04-25T00:09:21;3.60;;;3.30;;
57615;SDS011;43816;52.054;-9.494;2023-04-25T00:09:32;3.50;;;3.20;;
57615;SDS011;43816;52.054;-9.494;2023-04-25T00:09:42;3.30;;;3.10;;
57615;SDS011;43816;52.054;-9.494;2023-04-25T00:09:52;3.47;;;3.20;;
57615;SDS011;43816;52.054;-9.494;2023-04-25T00:10:03;3.63;;;3.33;;
57615;SDS011;43816;52.054;-9.494;2023-04-25T00:10:14;3.60;;;3.30;;
57615;SDS011;43816;52.054;-9.494;2023-04-25T00:10:24;3.50;;;3.20;;
57615;SDS011;43816;52.054;-9.494;2023-04-25T00:10:34;3.40;;;3.10;;
57615;SDS011;43816;52.054;-9.494;2023-04-25T00:10:45;3.45;;;3.15;;
57615;SDS011;43816;52.054;-9.494;2023-04-25T00:10:55;3.60;;;3.30;;
57615;SDS011;43816;52.054;-9.494;2023-04-25T00:11:06;3.60;;;3.30;;
57615;SDS011;43816;52.054;-9.494;2023-04-25T00:11:16;3.70;;;3.40;;
57615;SDS011;43816;52.054;-9.494;2023-04-25T00:11:27;3.73;;;3.43;;
57615;SDS011;43816;52.054;-9.494;2023-04-25T00:11:37;3.70;;;3.40;;
57615;SDS011;43816;52.054;-9.494;2023-04-25T00:11:47;3.60;;;3.30;;
57615;SDS011;43816;52.054;-9.494;2023-04-25T00:11:58;3.27;;;3.00;;
57615;SDS011;43816;52.054;-9.494;2023-04-25T00:12:08;3.33;;;3.03;;
57615;SDS011;43816;52.054;-9.494;2023-04-25T00:12:19;3.40;;;3.10;;
57615;SDS011;43816;52.054;-9.494;2023-04-25T00:12:29;3.43;;;3.13;;
57615;SDS011;43816;52.054;-9.494;2023-04-25T00:12:39;3.63;;;3.20;;
57615;SDS011;43816;52.054;-9.494;2023-04-25T00:12:50;3.73;;;3.30;;
57615;SDS011;43816;52.054;-9.494;2023-04-25T00:13:00;3.70;;;3.33;;
57615;SDS011;43816;52.054;-9.494;2023-04-25T00:13:10;3.30;;;3.00;;
57615;SDS011;43816;52.054;-9.494;2023-04-25T00:13:20;3.20;;;2.90;;
57615;SDS011;43816;52.054;-9.494;2023-04-25T00:13:31;3.40;;;3.10;;
57615;SDS011;43816;52.054;-9.494;2023-04-25T00:13:41;3.60;;;3.30;;
57615;SDS011;43816;52.054;-9.494;2023-04-25T00:13:51;3.60;;;3.30;;
57615;SDS011;43816;52.054;-9.494;2023-04-25T00:14:02;3.50;;;3.20;;
57615;SDS011;43816;52.054;-9.494;2023-04-25T00:14:13;3.40;;;3.10;;
57615;SDS011;43816;52.054;-9.494;2023-04-25T00:14:24;3.40;;;3.10;;
57615;SDS011;43816;52.054;-9.494;2023-04-25T00:14:34;3.27;;;2.97;;
57615;SDS011;43816;52.054;-9.494;2023-04-25T00:14:44;3.33;;;3.03;;
57615;SDS011;43816;52.054;-9.494;2023-04-25T00:14:55;3.28;;;3.08;;
57615;SDS011;43816;52.054;-9.494;2023-04-25T00:15:05;3.40;;;3.10;;
57615;SDS011;43816;52.054;-9.494;2023-04-25T00:15:19;3.22;;;2.92;;
57615;SDS011;43816;52.054;-9.494;2023-04-25T00:15:29;3.40;;;3.10;;
57615;SDS011;43816;52.054;-9.494;2023-04-25T00:15:40;3.40;;;3.10;;
57615;SDS011;43816;52.054;-9.494;2023-04-25T00:15:50;3.65;;;3.35;;
57615;SDS011;43816;52.054;-9.494;2023-04-25T00:16:01;3.55;;;3.25;;
57615;SDS011;43816;52.054;-9.494;2023-04-25T00:16:11;3.70;;;3.40;;
57615;SDS011;43816;52.054;-9.494;2023-04-25T00:16:22;3.43;;;3.13;;
57615;SDS011;43816;52.054;-9.494;2023-04-25T00:16:32;3.37;;;3.10;;
57615;SDS011;43816;52.054;-9.494;2023-04-25T00:16:42;3.05;;;2.85;;
57615;SDS011;43816;52.054;-9.494;2023-04-25T00:16:53;3.20;;;2.90;;
57615;SDS011;43816;52.054;-9.494;2023-04-25T00:17:03;3.00;;;2.80;;
57615;SDS011;43816;52.054;-9.494;2023-04-25T00:17:13;3.20;;;3.00;;
57615;SDS011;43816;52.054;-9.494;2023-04-25T00:17:24;3.17;;;2.97;;
57615;SDS011;43816;52.054;-9.494;2023-04-25T00:17:34;3.20;;;3.00;;
57615;SDS011;43816;52.054;-9.494;2023-04-25T00:17:44;3.22;;;2.92;;
57615;SDS011;43816;52.054;-9.494;2023-04-25T00:17:55;3.30;;;3.00;;
57615;SDS011;43816;52.054;-9.494;2023-04-25T00:18:05;3.53;;;3.17;;
57615;SDS011;43816;52.054;-9.494;2023-04-25T00:18:15;3.40;;;3.10;;
57615;SDS011;43816;52.054;-9.494;2023-04-25T00:18:26;3.40;;;3.10;;
57615;SDS011;43816;52.054;-9.494;2023-04-25T00:18:36;3.20;;;2.90;;
57615;SDS011;43816;52.054;-9.494;2023-04-25T00:18:46;3.33;;;3.03;;
57615;SDS011;43816;52.054;-9.494;2023-04-25T00:18:57;3.30;;;3.00;;
57615;SDS011;43816;52.054;-9.494;2023-04-25T00:19:07;3.30;;;3.03;;
57615;SDS011;43816;52.054;-9.494;2023-04-25T00:19:17;3.28;;;3.00;;
57615;SDS011;43816;52.054;-9.494;2023-04-25T00:19:28;3.20;;;2.90;;
57615;SDS011;43816;52.054;-9.494;2023-04-25T00:19:38;3.35;;;3.05;;
57615;SDS011;43816;52.054;-9.494;2023-04-25T00:19:48;3.37;;;3.00;;
57615;SDS011;43816;52.054;-9.494;2023-04-25T00:19:59;3.50;;;3.20;;
57615;SDS011;43816;52.054;-9.494;2023-04-25T00:20:09;3.50;;;3.20;;
57615;SDS011;43816;52.054;-9.494;2023-04-25T00:20:20;3.42;;;3.15;;
57615;SDS011;43816;52.054;-9.494;2023-04-25T00:20:30;3.20;;;3.00;;
57615;SDS011;43816;52.054;-9.494;2023-04-25T00:20:40;3.00;;;2.80;;
57615;SDS011;43816;52.054;-9.494;2023-04-25T00:20:51;3.00;;;2.80;;
57615;SDS011;43816;52.054;-9.494;2023-04-25T00:21:01;3.27;;;2.97;;
57615;SDS011;43816;52.054;-9.494;2023-04-25T00:21:11;3.40;;;3.10;;
57615;SDS011;43816;52.054;-9.494;2023-04-25T00:21:22;3.27;;;2.97;;
57615;SDS011;43816;52.054;-9.494;2023-04-25T00:21:32;3.20;;;2.90;;
57615;SDS011;43816;52.054;-9.494;2023-04-25T00:21:43;3.10;;;2.80;;
57615;SDS011;43816;52.054;-9.494;2023-04-25T00:21:53;3.07;;;2.77;;
57615;SDS011;43816;52.054;-9.494;2023-04-25T00:22:04;3.08;;;2.78;;
57615;SDS011;43816;52.054;-9.494;2023-04-25T00:22:15;3.17;;;2.88;;
57615;SDS011;43816;52.054;-9.494;2023-04-25T00:22:25;3.13;;;2.83;;
57615;SDS011;43816;52.054;-9.494;2023-04-25T00:22:35;3.30;;;3.00;;
57615;SDS011;43816;52.054;-9.494;2023-04-25T00:22:46;3.40;;;3.10;;
57615;SDS011;43816;52.054;-9.494;2023-04-25T00:22:56;3.50;;;3.20;;
57615;SDS011;43816;52.054;-9.494;2023-04-25T00:23:06;3.30;;;3.00;;
57615;SDS011;43816;52.054;-9.494;2023-04-25T00:23:16;3.30;;;2.95;;
57615;SDS011;43816;52.054;-9.494;2023-04-25T00:23:27;3.20;;;2.90;;
57615;SDS011;43816;52.054;-9.494;2023-04-25T00:23:37;3.25;;;2.95;;
57615;SDS011;43816;52.054;-9.494;2023-04-25T00:23:48;3.10;;;2.80;;
57615;SDS011;43816;52.054;-9.494;2023-04-25T00:23:58;3.10;;;2.80;;
57615;SDS011;43816;52.054;-9.494;2023-04-25T00:24:09;3.22;;;2.70;;
57615;SDS011;43816;52.054;-9.494;2023-04-25T00:24:19;3.95;;;2.90;;
57615;SDS011;43816;52.054;-9.494;2023-04-25T00:24:29;3.83;;;2.67;;
57615;SDS011;43816;52.054;-9.494;2023-04-25T00:24:40;3.80;;;2.70;;
57615;SDS011;43816;52.054;-9.494;2023-04-25T00:24:50;3.25;;;2.65;;
57615;SDS011;43816;52.054;-9.494;2023-04-25T00:25:00;3.57;;;2.83;;
57615;SDS011;43816;52.054;-9.494;2023-04-25T00:25:10;3.37;;;3.00;;
57615;SDS011;43816;52.054;-9.494;2023-04-25T00:25:21;3.42;;;3.08;;
57615;SDS011;43816;52.054;-9.494;2023-04-25T00:25:31;3.70;;;3.17;;
57615;SDS011;43816;52.054;-9.494;2023-04-25T00:25:41;3.63;;;3.17;;
57615;SDS011;43816;52.054;-9.494;2023-04-25T00:25:52;3.47;;;3.10;;
57615;SDS011;43816;52.054;-9.494;2023-04-25T00:26:02;3.20;;;2.90;;
57615;SDS011;43816;52.054;-9.494;2023-04-25T00:26:12;3.20;;;2.90;;
57615;SDS011;43816;52.054;-9.494;2023-04-25T00:26:23;3.20;;;2.90;;
57615;SDS011;43816;52.054;-9.494;2023-04-25T00:26:34;3.43;;;3.03;;
57615;SDS011;43816;52.054;-9.494;2023-04-25T00:26:45;3.50;;;3.08;;
57615;SDS011;43816;52.054;-9.494;2023-04-25T00:26:55;4.00;;;3.23;;
57615;SDS011;43816;52.054;-9.494;2023-04-25T00:27:05;3.33;;;3.03;;
57615;SDS011;43816;52.054;-9.494;2023-04-25T00:27:15;3.25;;;2.95;;
57615;SDS011;43816;52.054;-9.494;2023-04-25T00:27:26;3.20;;;2.90;;
57615;SDS011;43816;52.054;-9.494;2023-04-25T00:27:36;3.17;;;2.87;;
57615;SDS011;43816;52.054;-9.494;2023-04-25T00:27:47;3.13;;;2.90;;
57615;SDS011;43816;52.054;-9.494;2023-04-25T00:27:57;3.30;;;3.00;;
57615;SDS011;43816;52.054;-9.494;2023-04-25T00:28:07;3.47;;;3.17;;
57615;SDS011;43816;52.054;-9.494;2023-04-25T00:28:17;3.40;;;3.10;;
57615;SDS011;43816;52.054;-9.494;2023-04-25T00:28:28;3.37;;;3.07;;
57615;SDS011;43816;52.054;-9.494;2023-04-25T00:28:39;3.23;;;2.93;;
57615;SDS011;43816;52.054;-9.494;2023-04-25T00:28:49;3.20;;;2.90;;
57615;SDS011;43816;52.054;-9.494;2023-04-25T00:28:59;3.20;;;2.90;;
57615;SDS011;43816;52.054;-9.494;2023-04-25T00:29:10;3.23;;;2.93;;
57615;SDS011;43816;52.054;-9.494;2023-04-25T00:29:20;3.00;;;2.80;;
57615;SDS011;43816;52.054;-9.494;2023-04-25T00:29:30;3.00;;;2.77;;
57615;SDS011;43816;52.054;-9.494;2023-04-25T00:29:41;3.23;;;2.93;;
57615;SDS011;43816;52.054;-9.494;2023-04-25T00:29:51;3.47;;;3.17;;
57615;SDS011;43816;52.054;-9.494;2023-04-25T00:30:02;3.43;;;3.13;;
57615;SDS011;43816;52.054;-9.494;2023-04-25T00:30:12;3.40;;;3.10;;
57615;SDS011;43816;52.054;-9.494;2023-04-25T00:30:23;3.13;;;2.92;;
57615;SDS011;43816;52.054;-9.494;2023-04-25T00:30:33;3.07;;;2.87;;
57615;SDS011;43816;52.054;-9.494;2023-04-25T00:30:44;3.03;;;2.77;;
57615;SDS011;43816;52.054;-9.494;2023-04-25T00:30:54;3.00;;;2.70;;
57615;SDS011;43816;52.054;-9.494;2023-04-25T00:31:04;3.00;;;2.70;;
57615;SDS011;43816;52.054;-9.494;2023-04-25T00:31:15;3.33;;;2.73;;
57615;SDS011;43816;52.054;-9.494;2023-04-25T00:31:25;3.45;;;2.83;;
57615;SDS011;43816;52.054;-9.494;2023-04-25T00:31:35;3.37;;;2.90;;
57615;SDS011;43816;52.054;-9.494;2023-04-25T00:31:45;3.20;;;2.90;;
57615;SDS011;43816;52.054;-9.494;2023-04-25T00:31:56;3.65;;;3.03;;
57615;SDS011;43816;52.054;-9.494;2023-04-25T00:32:06;3.97;;;3.00;;
57615;SDS011;43816;52.054;-9.494;2023-04-25T00:32:16;3.97;;;3.00;;
57615;SDS011;43816;52.054;-9.494;2023-04-25T00:32:27;3.13;;;2.80;;
57615;SDS011;43816;52.054;-9.494;2023-04-25T00:32:37;2.97;;;2.70;;
57615;SDS011;43816;52.054;-9.494;2023-04-25T00:32:47;3.00;;;2.80;;
57615;SDS011;43816;52.054;-9.494;2023-04-25T00:32:57;3.00;;;2.80;;
57615;SDS011;43816;52.054;-9.494;2023-04-25T00:33:08;3.10;;;2.70;;
57615;SDS011;43816;52.054;-9.494;2023-04-25T00:33:19;3.10;;;2.70;;
57615;SDS011;43816;52.054;-9.494;2023-04-25T00:33:29;3.13;;;2.80;;
57615;SDS011;43816;52.054;-9.494;2023-04-25T00:33:39;3.05;;;2.80;;
57615;SDS011;43816;52.054;-9.494;2023-04-25T00:33:50;3.13;;;2.80;;
57615;SDS011;43816;52.054;-9.494;2023-04-25T00:34:00;3.13;;;2.83;;
57615;SDS011;43816;52.054;-9.494;2023-04-25T00:34:10;3.10;;;2.80;;
57615;SDS011;43816;52.054;-9.494;2023-04-25T00:34:21;2.90;;;2.70;;
57615;SDS011;43816;52.054;-9.494;2023-04-25T00:34:31;3.00;;;2.70;;
57615;SDS011;43816;52.054;-9.494;2023-04-25T00:34:41;3.55;;;2.90;;
57615;SDS011;43816;52.054;-9.494;2023-04-25T00:34:51;3.60;;;2.90;;
57615;SDS011;43816;52.054;-9.494;2023-04-25T00:35:02;3.07;;;2.77;;
57615;SDS011;43816;52.054;-9.494;2023-04-25T00:35:12;2.95;;;2.70;;
57615;SDS011;43816;52.054;-9.494;2023-04-25T00:35:22;2.97;;;2.70;;
57615;SDS011;43816;52.054;-9.494;2023-04-25T00:35:33;2.97;;;2.70;;
57615;SDS011;43816;52.054;-9.494;2023-04-25T00:35:44;2.83;;;2.63;;
57615;SDS011;43816;52.054;-9.494;2023-04-25T00:35:54;2.83;;;2.63;;
57615;SDS011;43816;52.054;-9.494;2023-04-25T00:36:05;2.85;;;2.65;;
57615;SDS011;43816;52.054;-9.494;2023-04-25T00:36:16;2.85;;;2.65;;
57615;SDS011;43816;52.054;-9.494;2023-04-25T00:36:26;2.90;;;2.70;;
57615;SDS011;43816;52.054;-9.494;2023-04-25T00:36:37;2.83;;;2.63;;
57615;SDS011;43816;52.054;-9.494;2023-04-25T00:36:47;2.90;;;2.70;;
57615;SDS011;43816;52.054;-9.494;2023-04-25T00:36:58;2.80;;;2.60;;
57615;SDS011;43816;52.054;-9.494;2023-04-25T00:37:08;2.80;;;2.60;;
57615;SDS011;43816;52.054;-9.494;2023-04-25T00:37:18;2.83;;;2.60;;
57615;SDS011;43816;52.054;-9.494;2023-04-25T00:37:29;2.78;;;2.58;;
57615;SDS011;43816;52.054;-9.494;2023-04-25T00:37:39;2.70;;;2.50;;
57615;SDS011;43816;52.054;-9.494;2023-04-25T00:37:49;2.93;;;2.60;;
57615;SDS011;43816;52.054;-9.494;2023-04-25T00:38:00;3.07;;;2.67;;
57615;SDS011;43816;52.054;-9.494;2023-04-25T00:38:10;3.10;;;2.80;;
57615;SDS011;43816;52.054;-9.494;2023-04-25T00:38:21;2.90;;;2.70;;
57615;SDS011;43816;52.054;-9.494;2023-04-25T00:38:31;3.00;;;2.80;;
57615;SDS011;43816;52.054;-9.494;2023-04-25T00:38:41;2.97;;;2.77;;
57615;SDS011;43816;52.054;-9.494;2023-04-25T00:38:52;3.08;;;2.83;;
57615;SDS011;43816;52.054;-9.494;2023-04-25T00:39:03;3.10;;;2.80;;
57615;SDS011;43816;52.054;-9.494;2023-04-25T00:39:13;3.03;;;2.80;;
57615;SDS011;43816;52.054;-9.494;2023-04-25T00:39:24;3.10;;;2.90;;
57615;SDS011;43816;52.054;-9.494;2023-04-25T00:39:34;3.10;;;2.90;;
57615;SDS011;43816;52.054;-9.494;2023-04-25T00:39:44;3.15;;;2.85;;
57615;SDS011;43816;52.054;-9.494;2023-04-25T00:39:55;2.87;;;2.67;;
57615;SDS011;43816;52.054;-9.494;2023-04-25T00:40:07;3.10;;;2.80;;
57615;SDS011;43816;52.054;-9.494;2023-04-25T00:40:18;3.10;;;2.80;;
57615;SDS011;43816;52.054;-9.494;2023-04-25T00:40:28;3.03;;;2.72;;
57615;SDS011;43816;52.054;-9.494;2023-04-25T00:40:41;2.90;;;2.60;;
57615;SDS011;43816;52.054;-9.494;2023-04-25T00:40:51;3.00;;;2.70;;
57615;SDS011;43816;52.054;-9.494;2023-04-25T00:41:01;3.10;;;2.80;;
57615;SDS011;43816;52.054;-9.494;2023-04-25T00:41:12;3.00;;;2.80;;
57615;SDS011;43816;52.054;-9.494;2023-04-25T00:41:22;2.85;;;2.65;;
57615;SDS011;43816;52.054;-9.494;2023-04-25T00:41:35;2.80;;;2.60;;
57615;SDS011;43816;52.054;-9.494;2023-04-25T00:41:46;2.83;;;2.63;;
57615;SDS011;43816;52.054;-9.494;2023-04-25T00:41:57;2.92;;;2.63;;
57615;SDS011;43816;52.054;-9.494;2023-04-25T00:42:08;3.13;;;2.80;;
57615;SDS011;43816;52.054;-9.494;2023-04-25T00:42:18;3.33;;;2.93;;
57615;SDS011;43816;52.054;-9.494;2023-04-25T00:42:29;3.40;;;3.10;;
57615;SDS011;43816;52.054;-9.494;2023-04-25T00:42:40;3.50;;;3.20;;
57615;SDS011;43816;52.054;-9.494;2023-04-25T00:42:52;3.42;;;3.05;;
57615;SDS011;43816;52.054;-9.494;2023-04-25T00:43:02;3.17;;;2.78;;
57615;SDS011;43816;52.054;-9.494;2023-04-25T00:43:14;2.70;;;2.50;;
57615;SDS011;43816;52.054;-9.494;2023-04-25T00:43:25;2.63;;;2.43;;
57615;SDS011;43816;52.054;-9.494;2023-04-25T00:43:36;2.80;;;2.60;;
57615;SDS011;43816;52.054;-9.494;2023-04-25T00:43:47;2.80;;;2.60;;
57615;SDS011;43816;52.054;-9.494;2023-04-25T00:43:59;2.90;;;2.60;;
57615;SDS011;43816;52.054;-9.494;2023-04-25T00:44:10;2.80;;;2.60;;
57615;SDS011;43816;52.054;-9.494;2023-04-25T00:44:21;3.38;;;2.67;;
57615;SDS011;43816;52.054;-9.494;2023-04-25T00:44:33;3.25;;;2.70;;
57615;SDS011;43816;52.054;-9.494;2023-04-25T00:44:45;3.25;;;2.70;;
57615;SDS011;43816;52.054;-9.494;2023-04-25T00:44:57;2.90;;;2.70;;
57615;SDS011;43816;52.054;-9.494;2023-04-25T00:45:09;2.90;;;2.70;;
57615;SDS011;43816;52.054;-9.494;2023-04-25T00:45:23;2.88;;;2.67;;
57615;SDS011;43816;52.054;-9.494;2023-04-25T00:45:38;3.28;;;2.78;;
57615;SDS011;43816;52.054;-9.494;2023-04-25T00:45:49;3.10;;;2.70;;
57615;SDS011;43816;52.054;-9.494;2023-04-25T00:46:01;3.45;;;2.67;;
57615;SDS011;43816;52.054;-9.494;2023-04-25T00:46:12;3.20;;;2.80;;
57615;SDS011;43816;52.054;-9.494;2023-04-25T00:46:22;3.10;;;2.80;;
57615;SDS011;43816;52.054;-9.494;2023-04-25T00:46:32;3.00;;;2.80;;
57615;SDS011;43816;52.054;-9.494;2023-04-25T00:46:43;2.90;;;2.70;;
57615;SDS011;43816;52.054;-9.494;2023-04-25T00:46:54;3.00;;;2.80;;
57615;SDS011;43816;52.054;-9.494;2023-04-25T00:47:05;3.00;;;2.80;;
57615;SDS011;43816;52.054;-9.494;2023-04-25T00:47:17;2.83;;;2.63;;
57615;SDS011;43816;52.054;-9.494;2023-04-25T00:47:27;2.80;;;2.60;;
57615;SDS011;43816;52.054;-9.494;2023-04-25T00:47:38;2.70;;;2.50;;
57615;SDS011;43816;52.054;-9.494;2023-04-25T00:47:50;2.58;;;2.38;;
57615;SDS011;43816;52.054;-9.494;2023-04-25T00:48:00;2.72;;;2.53;;
57615;SDS011;43816;52.054;-9.494;2023-04-25T00:48:11;2.88;;;2.67;;
57615;SDS011;43816;52.054;-9.494;2023-04-25T00:48:23;2.90;;;2.67;;
57615;SDS011;43816;52.054;-9.494;2023-04-25T00:48:33;2.63;;;2.43;;
57615;SDS011;43816;52.054;-9.494;2023-04-25T00:48:44;2.70;;;2.50;;
57615;SDS011;43816;52.054;-9.494;2023-04-25T00:48:54;2.90;;;2.63;;
57615;SDS011;43816;52.054;-9.494;2023-04-25T00:49:04;3.00;;;2.80;;
57615;SDS011;43816;52.054;-9.494;2023-04-25T00:49:15;3.00;;;2.80;;
57615;SDS011;43816;52.054;-9.494;2023-04-25T00:49:26;2.85;;;2.65;;
57615;SDS011;43816;52.054;-9.494;2023-04-25T00:49:36;2.70;;;2.50;;
57615;SDS011;43816;52.054;-9.494;2023-04-25T00:49:46;2.70;;;2.50;;
57615;SDS011;43816;52.054;-9.494;2023-04-25T00:49:56;2.75;;;2.55;;
57615;SDS011;43816;52.054;-9.494;2023-04-25T00:50:07;2.90;;;2.70;;
57615;SDS011;43816;52.054;-9.494;2023-04-25T00:50:18;3.02;;;2.82;;
57615;SDS011;43816;52.054;-9.494;2023-04-25T00:50:29;2.90;;;2.70;;
57615;SDS011;43816;52.054;-9.494;2023-04-25T00:50:39;2.73;;;2.53;;
57615;SDS011;43816;52.054;-9.494;2023-04-25T00:50:54;2.70;;;2.50;;
57615;SDS011;43816;52.054;-9.494;2023-04-25T00:51:07;2.83;;;2.63;;
57615;SDS011;43816;52.054;-9.494;2023-04-25T00:51:19;2.90;;;2.60;;
57615;SDS011;43816;52.054;-9.494;2023-04-25T00:51:30;2.67;;;2.47;;
57615;SDS011;43816;52.054;-9.494;2023-04-25T00:51:42;2.70;;;2.50;;
57615;SDS011;43816;52.054;-9.494;2023-04-25T00:51:53;2.80;;;2.60;;
57615;SDS011;43816;52.054;-9.494;2023-04-25T00:52:04;2.88;;;2.67;;
57615;SDS011;43816;52.054;-9.494;2023-04-25T00:52:15;2.75;;;2.55;;
57615;SDS011;43816;52.054;-9.494;2023-04-25T00:52:25;2.80;;;2.60;;
57615;SDS011;43816;52.054;-9.494;2023-04-25T00:52:44;2.80;;;2.60;;
57615;SDS011;43816;52.054;-9.494;2023-04-25T00:52:55;2.67;;;2.47;;
57615;SDS011;43816;52.054;-9.494;2023-04-25T00:53:05;2.70;;;2.50;;
57615;SDS011;43816;52.054;-9.494;2023-04-25T00:53:16;2.70;;;2.50;;
57615;SDS011;43816;52.054;-9.494;2023-04-25T00:53:27;2.90;;;2.60;;
57615;SDS011;43816;52.054;-9.494;2023-04-25T00:53:38;2.78;;;2.58;;
57615;SDS011;43816;52.054;-9.494;2023-04-25T00:53:48;2.80;;;2.60;;
57615;SDS011;43816;52.054;-9.494;2023-04-25T00:54:00;2.83;;;2.63;;
57615;SDS011;43816;52.054;-9.494;2023-04-25T00:54:11;2.97;;;2.78;;
57615;SDS011;43816;52.054;-9.494;2023-04-25T00:54:22;2.80;;;2.60;;
57615;SDS011;43816;52.054;-9.494;2023-04-25T00:54:32;2.70;;;2.50;;
57615;SDS011;43816;52.054;-9.494;2023-04-25T00:54:43;2.80;;;2.60;;
57615;SDS011;43816;52.054;-9.494;2023-04-25T00:54:53;2.93;;;2.63;;
57615;SDS011;43816;52.054;-9.494;2023-04-25T00:55:04;3.13;;;2.65;;
57615;SDS011;43816;52.054;-9.494;2023-04-25T00:55:15;2.80;;;2.50;;
57615;SDS011;43816;52.054;-9.494;2023-04-25T00:55:26;2.90;;;2.60;;
57615;SDS011;43816;52.054;-9.494;2023-04-25T00:55:36;2.90;;;2.60;;
57615;SDS011;43816;52.054;-9.494;2023-04-25T00:55:47;2.97;;;2.67;;
57615;SDS011;43816;52.054;-9.494;2023-04-25T00:55:57;2.80;;;2.60;;
57615;SDS011;43816;52.054;-9.494;2023-04-25T00:56:08;2.73;;;2.53;;
57615;SDS011;43816;52.054;-9.494;2023-04-25T00:56:21;2.72;;;2.53;;
57615;SDS011;43816;52.054;-9.494;2023-04-25T00:56:31;2.78;;;2.58;;
57615;SDS011;43816;52.054;-9.494;2023-04-25T00:56:42;3.00;;;2.70;;
57615;SDS011;43816;52.054;-9.494;2023-04-25T00:56:52;2.80;;;2.50;;
57615;SDS011;43816;52.054;-9.494;2023-04-25T00:57:03;2.63;;;2.43;;
57615;SDS011;43816;52.054;-9.494;2023-04-25T00:57:16;2.70;;;2.50;;
57615;SDS011;43816;52.054;-9.494;2023-04-25T00:57:27;2.80;;;2.60;;
57615;SDS011;43816;52.054;-9.494;2023-04-25T00:57:37;2.55;;;2.35;;
57615;SDS011;43816;52.054;-9.494;2023-04-25T00:57:48;2.65;;;2.42;;
57615;SDS011;43816;52.054;-9.494;2023-04-25T00:57:59;2.58;;;2.38;;
57615;SDS011;43816;52.054;-9.494;2023-04-25T00:58:10;2.77;;;2.50;;
57615;SDS011;43816;52.054;-9.494;2023-04-25T00:58:20;2.53;;;2.30;;
57615;SDS011;43816;52.054;-9.494;2023-04-25T00:58:31;2.70;;;2.50;;
57615;SDS011;43816;52.054;-9.494;2023-04-25T00:58:42;2.60;;;2.40;;
57615;SDS011;43816;52.054;-9.494;2023-04-25T00:58:53;2.63;;;2.42;;
57615;SDS011;43816;52.054;-9.494;2023-04-25T00:59:04;2.90;;;2.60;;
57615;SDS011;43816;52.054;-9.494;2023-04-25T00:59:14;2.92;;;2.63;;
57615;SDS011;43816;52.054;-9.494;2023-04-25T00:59:25;2.80;;;2.58;;
57615;SDS011;43816;52.054;-9.494;2023-04-25T00:59:36;2.57;;;2.43;;
57615;SDS011;43816;52.054;-9.494;2023-04-25T00:59:47;2.70;;;2.50;;
57615;SDS011;43816;52.054;-9.494;2023-04-25T01:00:00;2.80;;;2.60;;
57615;SDS011;43816;52.054;-9.494;2023-04-25T01:00:11;2.75;;;2.55;;
57615;SDS011;43816;52.054;-9.494;2023-04-25T01:00:21;2.63;;;2.43;;
57615;SDS011;43816;52.054;-9.494;2023-04-25T01:00:32;2.60;;;2.40;;
57615;SDS011;43816;52.054;-9.494;2023-04-25T01:00:43;2.60;;;2.40;;
57615;SDS011;43816;52.054;-9.494;2023-04-25T01:00:55;2.60;;;2.40;;
57615;SDS011;43816;52.054;-9.494;2023-04-25T01:01:07;2.60;;;2.40;;
57615;SDS011;43816;52.054;-9.494;2023-04-25T01:01:18;2.53;;;2.33;;
57615;SDS011;43816;52.054;-9.494;2023-04-25T01:01:28;2.40;;;2.20;;
57615;SDS011;43816;52.054;-9.494;2023-04-25T01:01:38;2.35;;;2.15;;
57615;SDS011;43816;52.054;-9.494;2023-04-25T01:01:49;2.30;;;2.10;;
57615;SDS011;43816;52.054;-9.494;2023-04-25T01:01:59;2.35;;;2.15;;
57615;SDS011;43816;52.054;-9.494;2023-04-25T01:02:10;2.50;;;2.30;;
57615;SDS011;43816;52.054;-9.494;2023-04-25T01:02:20;2.45;;;2.30;;
57615;SDS011;43816;52.054;-9.494;2023-04-25T01:02:31;2.53;;;2.33;;
57615;SDS011;43816;52.054;-9.494;2023-04-25T01:02:45;2.60;;;2.40;;
57615;SDS011;43816;52.054;-9.494;2023-04-25T01:02:56;2.50;;;2.30;;
57615;SDS011;43816;52.054;-9.494;2023-04-25T01:03:06;2.50;;;2.30;;
57615;SDS011;43816;52.054;-9.494;2023-04-25T01:03:17;2.43;;;2.23;;